Time;durP1;ratioP1;P1;durP2;ratioP2;P2;SDS_P1;SDS_P2;PMS_P1;PMS_P2;Temp;Humidity;BMP_temperature;BMP_pressure;BME280_temperature;BME280_humidity;BME280_pressure;Samples;Min_cycle;Max_cycle;Signal;HPM_P1;HPM_P2
2023/03/31 00:00:13;;;;;;;11.70;2.65;;;;;;;;;;5138059;27;20078;-82
2023/03/31 00:02:42;;;;;;;11.00;2.97;;;;;;;;;;5119840;27;20893;-81
2023/03/31 00:05:10;;;;;;;12.70;2.90;;;;;;;;;;5137948;27;20044;-82
2023/03/31 00:07:39;;;;;;;11.15;2.92;;;;;;;;;;5138049;27;20086;-82
2023/03/31 00:10:06;;;;;;;14.05;2.95;;;;;;;;;;5118451;27;20142;-82
2023/03/31 00:12:43;;;;;;;11.43;2.53;;;;;;;;;;5136146;27;20075;-81
2023/03/31 00:15:10;;;;;;;12.77;2.92;;;;;;;;;;5128644;27;20055;-82
2023/03/31 00:17:39;;;;;;;11.27;2.45;;;;;;;;;;5134066;27;20060;-82
2023/03/31 00:20:10;;;;;;;10.00;2.88;;;;;;;;;;5135830;27;20047;-82
2023/03/31 00:22:40;;;;;;;16.38;3.35;;;;;;;;;;5116774;27;21081;-82
2023/03/31 00:25:09;;;;;;;13.90;2.85;;;;;;;;;;5116448;27;20094;-82
2023/03/31 00:27:35;;;;;;;12.82;2.38;;;;;;;;;;5132123;27;20139;-82
2023/03/31 00:30:02;;;;;;;12.80;2.42;;;;;;;;;;5125057;27;20071;-82
2023/03/31 00:32:29;;;;;;;12.38;2.40;;;;;;;;;;5113595;28;20052;-82
2023/03/31 00:34:55;;;;;;;12.70;2.25;;;;;;;;;;5116653;27;20055;-82
2023/03/31 00:37:23;;;;;;;14.10;3.10;;;;;;;;;;5132236;27;20065;-82
2023/03/31 00:39:50;;;;;;;10.30;2.40;;;;;;;;;;5116957;27;20058;-82
2023/03/31 00:42:19;;;;;;;13.57;2.83;;;;;;;;;;5112450;28;20048;-82
2023/03/31 00:45:04;;;;;;;10.40;2.40;;;;;;;;;;5113461;27;20047;-82
2023/03/31 00:47:30;;;;;;;8.63;2.38;;;;;;;;;;5136160;27;20537;-82
2023/03/31 00:49:57;;;;;;;13.75;2.67;;;;;;;;;;5136565;27;20591;-82
2023/03/31 00:52:26;;;;;;;9.13;2.55;;;;;;;;;;5110190;28;20091;-82
2023/03/31 00:54:55;;;;;;;12.18;2.38;;;;;;;;;;5098994;27;20107;-82
2023/03/31 00:57:22;;;;;;;10.73;2.20;;;;;;;;;;5119237;27;20086;-82
2023/03/31 00:59:50;;;;;;;12.90;2.63;;;;;;;;;;5101654;28;20076;-82
2023/03/31 01:02:19;;;;;;;11.35;2.15;;;;;;;;;;5097565;28;20095;-82
2023/03/31 01:04:49;;;;;;;12.05;2.33;;;;;;;;;;5126747;27;20048;-82
2023/03/31 01:07:19;;;;;;;8.43;2.33;;;;;;;;;;5113425;27;20083;-82
2023/03/31 01:09:46;;;;;;;10.38;2.67;;;;;;;;;;5118313;27;20059;-82
2023/03/31 01:12:14;;;;;;;12.75;2.50;;;;;;;;;;5133611;27;20851;-82
2023/03/31 01:14:41;;;;;;;9.75;2.15;;;;;;;;;;5135860;27;20051;-82
2023/03/31 01:17:08;;;;;;;10.43;2.65;;;;;;;;;;5133915;27;20094;-82
2023/03/31 01:20:05;;;;;;;9.77;2.55;;;;;;;;;;5093800;28;20430;-83
2023/03/31 01:22:58;;;;;;;12.93;2.50;;;;;;;;;;5120427;27;20068;-82
2023/03/31 01:25:41;;;;;;;10.75;2.72;;;;;;;;;;5114862;28;20058;-83
2023/03/31 01:28:14;;;;;;;14.18;2.40;;;;;;;;;;5130184;27;20528;-83
2023/03/31 01:30:40;;;;;;;13.63;2.83;;;;;;;;;;5120483;27;20040;-82
2023/03/31 01:33:24;;;;;;;10.77;2.85;;;;;;;;;;5125909;27;20134;-83
2023/03/31 01:35:56;;;;;;;12.18;3.03;;;;;;;;;;5094879;28;20052;-82
2023/03/31 01:38:41;;;;;;;14.40;3.05;;;;;;;;;;5124119;27;20062;-82
2023/03/31 01:41:17;;;;;;;12.85;2.85;;;;;;;;;;5136215;27;20065;-82
2023/03/31 01:43:57;;;;;;;13.57;3.15;;;;;;;;;;5101421;27;20035;-83
2023/03/31 01:46:27;;;;;;;10.07;3.08;;;;;;;;;;5127389;27;20052;-83
2023/03/31 01:49:00;;;;;;;13.27;3.50;;;;;;;;;;5133901;27;20063;-83
2023/03/31 01:51:46;;;;;;;15.35;3.28;;;;;;;;;;5128395;27;20036;-83
2023/03/31 01:54:22;;;;;;;13.27;3.10;;;;;;;;;;5091211;28;20048;-82
2023/03/31 01:56:54;;;;;;;14.02;3.22;;;;;;;;;;5115083;27;20911;-83
2023/03/31 01:59:21;;;;;;;15.23;3.22;;;;;;;;;;5097951;27;20808;-83
2023/03/31 02:01:55;;;;;;;11.32;3.13;;;;;;;;;;5133202;27;20058;-83
2023/03/31 02:04:22;;;;;;;13.63;3.17;;;;;;;;;;5134143;27;20055;-82
2023/03/31 02:07:01;;;;;;;11.25;3.38;;;;;;;;;;5124867;27;20044;-82
2023/03/31 02:09:29;;;;;;;11.95;3.20;;;;;;;;;;5115083;27;20525;-82
2023/03/31 02:11:57;;;;;;;13.02;3.10;;;;;;;;;;5121270;27;20075;-82
2023/03/31 02:14:25;;;;;;;12.23;3.20;;;;;;;;;;5118838;27;20159;-83
2023/03/31 02:16:57;;;;;;;13.68;2.70;;;;;;;;;;5098946;27;20055;-83
2023/03/31 02:19:26;;;;;;;11.73;3.03;;;;;;;;;;5104265;27;20055;-83
2023/03/31 02:21:53;;;;;;;14.38;2.50;;;;;;;;;;5112851;27;20174;-82
2023/03/31 02:24:22;;;;;;;13.55;2.50;;;;;;;;;;5112506;27;20052;-83
2023/03/31 02:27:02;;;;;;;12.52;3.30;;;;;;;;;;5129821;27;20596;-82
2023/03/31 02:29:29;;;;;;;9.80;2.30;;;;;;;;;;5119190;27;20056;-82
2023/03/31 02:32:00;;;;;;;10.95;2.85;;;;;;;;;;5092142;28;20048;-82
2023/03/31 02:34:26;;;;;;;;;;;;;;;;;;5125655;27;20051;-83
2023/03/31 02:36:52;;;;;;;13.43;2.55;;;;;;;;;;5132335;27;49028;-83
2023/03/31 02:39:22;;;;;;;14.95;2.65;;;;;;;;;;5125354;27;20059;-83
2023/03/31 02:41:48;;;;;;;18.92;3.25;;;;;;;;;;5127735;27;20079;-84
2023/03/31 02:44:15;;;;;;;14.40;3.00;;;;;;;;;;5130453;27;20146;-83
2023/03/31 02:46:42;;;;;;;16.88;3.00;;;;;;;;;;5125311;27;20055;-83
2023/03/31 02:49:10;;;;;;;12.38;2.97;;;;;;;;;;5100933;28;20147;-83
2023/03/31 02:51:55;;;;;;;8.82;2.65;;;;;;;;;;5105791;27;20542;-83
2023/03/31 02:54:31;;;;;;;10.85;2.80;;;;;;;;;;5105676;28;20926;-83
2023/03/31 02:57:19;;;;;;;12.15;2.60;;;;;;;;;;5104649;27;20056;-83
2023/03/31 03:00:08;;;;;;;14.63;2.40;;;;;;;;;;5103718;27;20085;-83
2023/03/31 03:02:53;;;;;;;13.52;2.40;;;;;;;;;;5103863;27;20093;-83
2023/03/31 03:05:39;;;;;;;7.50;1.90;;;;;;;;;;5104716;27;20052;-83
2023/03/31 03:08:27;;;;;;;9.70;2.28;;;;;;;;;;5122030;27;20056;-83
2023/03/31 03:11:16;;;;;;;11.57;2.25;;;;;;;;;;5122094;27;20887;-83
2023/03/31 03:13:46;;;;;;;12.90;2.25;;;;;;;;;;5101842;27;20750;-83
2023/03/31 03:16:27;;;;;;;13.13;2.28;;;;;;;;;;5111804;27;20043;-83
2023/03/31 03:18:56;;;;;;;13.68;2.42;;;;;;;;;;5123899;27;20827;-83
2023/03/31 03:21:25;;;;;;;7.68;1.75;;;;;;;;;;5101794;28;20569;-83
2023/03/31 03:23:52;;;;;;;10.65;2.38;;;;;;;;;;5103495;27;20151;-82
2023/03/31 03:26:22;;;;;;;11.05;2.17;;;;;;;;;;5117356;27;20525;-83
2023/03/31 03:28:49;;;;;;;11.93;1.70;;;;;;;;;;5105560;27;20075;-82
2023/03/31 03:31:16;;;;;;;11.70;2.35;;;;;;;;;;5122410;27;20051;-83
2023/03/31 03:33:42;;;;;;;13.55;2.20;;;;;;;;;;5116048;27;20074;-82
2023/03/31 03:36:09;;;;;;;12.38;2.10;;;;;;;;;;5103006;27;20150;-82
2023/03/31 03:38:38;;;;;;;12.55;2.08;;;;;;;;;;5092806;28;20071;-82
2023/03/31 03:41:05;;;;;;;16.15;3.75;;;;;;;;;;5089100;27;20052;-81
2023/03/31 03:43:31;;;;;;;10.00;1.98;;;;;;;;;;5104655;27;20091;-82
2023/03/31 03:45:58;;;;;;;14.85;2.60;;;;;;;;;;5103876;27;20084;-82
2023/03/31 03:48:25;;;;;;;13.73;2.30;;;;;;;;;;5085645;28;20106;-83
2023/03/31 03:50:53;;;;;;;13.43;2.17;;;;;;;;;;5091128;27;20056;-83
2023/03/31 03:53:19;;;;;;;11.05;2.40;;;;;;;;;;5102390;27;20081;-84
2023/03/31 03:55:48;;;;;;;8.63;2.03;;;;;;;;;;5123240;27;20047;-84
2023/03/31 03:58:16;;;;;;;16.02;2.55;;;;;;;;;;5123869;27;20054;-82
2023/03/31 04:00:44;;;;;;;11.88;1.92;;;;;;;;;;5103923;27;20780;-82
2023/03/31 04:03:10;;;;;;;12.77;1.83;;;;;;;;;;5123084;27;20051;-82
2023/03/31 04:05:37;;;;;;;11.55;1.83;;;;;;;;;;5125265;27;20056;-81
2023/03/31 04:08:05;;;;;;;8.77;1.65;;;;;;;;;;5124185;27;20051;-81
2023/03/31 04:10:31;;;;;;;9.02;1.70;;;;;;;;;;5103144;27;20071;-82
2023/03/31 04:12:57;;;;;;;12.00;1.77;;;;;;;;;;5117880;27;20511;-81
2023/03/31 04:15:24;;;;;;;10.68;1.42;;;;;;;;;;5090316;28;20193;-82
2023/03/31 04:17:53;;;;;;;10.10;1.95;;;;;;;;;;5104463;28;20066;-82
2023/03/31 04:20:20;;;;;;;6.13;1.67;;;;;;;;;;5107731;27;20054;-82
2023/03/31 04:22:49;;;;;;;9.20;1.80;;;;;;;;;;5123776;27;20112;-82
2023/03/31 04:25:16;;;;;;;9.30;1.48;;;;;;;;;;5102350;27;20059;-82
2023/03/31 04:27:49;;;;;;;9.77;1.70;;;;;;;;;;5123322;27;20044;-81
2023/03/31 04:30:21;;;;;;;10.57;2.00;;;;;;;;;;5109741;27;20063;-81
2023/03/31 04:32:49;;;;;;;10.05;1.98;;;;;;;;;;5099202;27;20111;-82
2023/03/31 04:35:17;;;;;;;9.98;1.85;;;;;;;;;;5105941;27;20056;-82
2023/03/31 04:37:43;;;;;;;12.63;3.70;;;;;;;;;;5124134;27;20050;-82
2023/03/31 04:40:10;;;;;;;14.00;2.85;;;;;;;;;;5123799;27;20063;-81
2023/03/31 04:42:37;;;;;;;9.48;2.33;;;;;;;;;;5102118;27;20055;-81
2023/03/31 04:45:04;;;;;;;13.80;3.35;;;;;;;;;;5114084;27;20063;-81
2023/03/31 04:47:44;;;;;;;12.38;2.75;;;;;;;;;;5113594;27;20052;-81
2023/03/31 04:50:11;;;;;;;12.18;2.42;;;;;;;;;;5120534;27;20051;-82
2023/03/31 04:52:42;;;;;;;15.85;3.25;;;;;;;;;;5097059;27;20152;-82
2023/03/31 04:55:08;;;;;;;12.68;3.17;;;;;;;;;;5117601;27;20135;-82
2023/03/31 04:57:36;;;;;;;12.45;3.17;;;;;;;;;;5106227;27;20048;-82
2023/03/31 05:00:06;;;;;;;10.38;3.08;;;;;;;;;;5116966;27;20581;-82
2023/03/31 05:02:32;;;;;;;12.48;3.20;;;;;;;;;;5096622;27;20091;-81
2023/03/31 05:04:59;;;;;;;10.60;2.92;;;;;;;;;;5121461;27;20051;-82
2023/03/31 05:07:25;;;;;;;10.25;3.00;;;;;;;;;;5120338;27;20792;-82
2023/03/31 05:09:52;;;;;;;13.70;2.78;;;;;;;;;;5093388;27;20063;-82
2023/03/31 05:12:18;;;;;;;16.77;3.45;;;;;;;;;;5116967;27;20786;-82
2023/03/31 05:14:45;;;;;;;10.35;3.03;;;;;;;;;;5113962;27;20052;-81
2023/03/31 05:17:11;;;;;;;11.38;2.92;;;;;;;;;;5120035;27;20052;-81
2023/03/31 05:19:37;;;;;;;12.88;3.30;;;;;;;;;;5102825;27;20528;-81
2023/03/31 05:22:04;;;;;;;12.98;3.80;;;;;;;;;;5126441;27;20083;-81
2023/03/31 05:24:31;;;;;;;9.20;3.08;;;;;;;;;;5122748;27;20059;-80
2023/03/31 05:26:57;;;;;;;13.00;3.58;;;;;;;;;;5108703;27;20032;-82
2023/03/31 05:29:24;;;;;;;17.10;2.80;;;;;;;;;;5092458;28;20044;-82
2023/03/31 05:31:52;;;;;;;10.63;2.70;;;;;;;;;;5117740;27;20418;-81
2023/03/31 05:34:18;;;;;;;13.27;3.30;;;;;;;;;;5123618;27;20056;-81
2023/03/31 05:36:46;;;;;;;12.27;3.53;;;;;;;;;;5124012;27;20056;-81
2023/03/31 05:39:13;;;;;;;10.13;2.75;;;;;;;;;;5127827;27;20048;-80
2023/03/31 05:41:39;;;;;;;13.25;2.63;;;;;;;;;;5131715;27;20055;-81
2023/03/31 05:44:06;;;;;;;6.78;2.13;;;;;;;;;;5124727;27;20208;-81
2023/03/31 05:46:32;;;;;;;12.18;2.95;;;;;;;;;;5120710;27;20063;-82
2023/03/31 05:48:59;;;;;;;11.43;2.53;;;;;;;;;;5133726;27;20060;-81
2023/03/31 05:51:25;;;;;;;10.10;2.10;;;;;;;;;;5110130;27;20058;-82
2023/03/31 05:53:51;;;;;;;13.43;2.72;;;;;;;;;;5123662;27;20388;-81
2023/03/31 05:56:18;;;;;;;9.20;2.05;;;;;;;;;;5118476;27;20040;-81
2023/03/31 05:58:44;;;;;;;15.18;2.75;;;;;;;;;;5120173;27;20862;-81
2023/03/31 06:01:12;;;;;;;13.00;2.65;;;;;;;;;;5105695;27;20060;-81
2023/03/31 06:03:41;;;;;;;8.15;2.35;;;;;;;;;;5111836;27;20525;-81
2023/03/31 06:06:08;;;;;;;12.57;2.20;;;;;;;;;;5125293;27;20061;-81
2023/03/31 06:08:36;;;;;;;12.77;3.88;;;;;;;;;;5129558;27;20075;-82
2023/03/31 06:11:07;;;;;;;7.50;1.90;;;;;;;;;;5129390;27;20494;-81
2023/03/31 06:13:35;;;;;;;6.13;2.13;;;;;;;;;;5127937;27;20509;-81
2023/03/31 06:16:01;;;;;;;10.00;2.10;;;;;;;;;;5126315;27;20048;-81
2023/03/31 06:18:28;;;;;;;10.88;2.08;;;;;;;;;;5126242;27;20119;-81
2023/03/31 06:20:55;;;;;;;11.00;2.10;;;;;;;;;;5119340;27;20048;-81
2023/03/31 06:23:22;;;;;;;10.75;2.10;;;;;;;;;;5108251;28;20056;-80
2023/03/31 06:25:48;;;;;;;5.50;1.30;;;;;;;;;;5110056;28;20120;-83
2023/03/31 06:28:17;;;;;;;7.43;1.98;;;;;;;;;;5126884;27;20058;-82
2023/03/31 06:30:43;;;;;;;7.40;1.60;;;;;;;;;;5124120;27;20099;-81
2023/03/31 06:33:10;;;;;;;7.22;1.58;;;;;;;;;;5124946;27;20897;-81
2023/03/31 06:35:37;;;;;;;9.07;1.83;;;;;;;;;;5128347;27;20063;-81
2023/03/31 06:38:04;;;;;;;6.57;1.30;;;;;;;;;;5121452;27;20055;-80
2023/03/31 06:40:30;;;;;;;7.00;1.90;;;;;;;;;;5114537;27;20052;-79
2023/03/31 06:42:56;;;;;;;5.20;1.67;;;;;;;;;;5113914;27;20055;-79
2023/03/31 06:45:23;;;;;;;7.50;1.20;;;;;;;;;;5116624;27;21101;-79
2023/03/31 06:47:49;;;;;;;8.48;1.30;;;;;;;;;;5120457;27;20052;-79
2023/03/31 06:50:15;;;;;;;14.30;1.80;;;;;;;;;;5119636;27;20101;-78
2023/03/31 06:52:42;;;;;;;8.57;1.27;;;;;;;;;;5123645;27;20063;-77
2023/03/31 06:55:08;;;;;;;3.42;0.93;;;;;;;;;;5113720;27;20060;-78
2023/03/31 06:57:35;;;;;;;4.90;0.98;;;;;;;;;;5110663;27;20056;-78
2023/03/31 07:00:03;;;;;;;5.18;1.00;;;;;;;;;;5106300;27;20074;-78
2023/03/31 07:02:29;;;;;;;6.80;1.40;;;;;;;;;;5111450;27;20060;-77
2023/03/31 07:04:56;;;;;;;5.15;1.00;;;;;;;;;;5118451;27;20140;-77
2023/03/31 07:07:22;;;;;;;5.72;1.20;;;;;;;;;;5115940;27;20517;-78
2023/03/31 07:09:49;;;;;;;7.45;1.20;;;;;;;;;;5114131;27;20055;-78
2023/03/31 07:12:15;;;;;;;8.63;1.10;;;;;;;;;;5106197;27;20053;-77
2023/03/31 07:14:41;;;;;;;5.13;1.27;;;;;;;;;;5095534;27;20055;-78
2023/03/31 07:17:08;;;;;;;7.57;1.15;;;;;;;;;;5123235;27;20878;-78
2023/03/31 07:19:36;;;;;;;8.13;1.30;;;;;;;;;;5127418;27;20035;-78
2023/03/31 07:22:04;;;;;;;4.97;1.33;;;;;;;;;;5106793;27;20128;-78
2023/03/31 07:24:31;;;;;;;5.68;1.50;;;;;;;;;;5092182;27;20642;-77
2023/03/31 07:26:57;;;;;;;7.13;1.10;;;;;;;;;;5119704;27;20048;-77
2023/03/31 07:29:24;;;;;;;6.53;1.27;;;;;;;;;;5109931;27;20052;-78
2023/03/31 07:31:51;;;;;;;6.07;1.25;;;;;;;;;;5087335;28;20083;-78
2023/03/31 07:34:18;;;;;;;4.22;1.40;;;;;;;;;;5105918;27;20609;-77
2023/03/31 07:36:44;;;;;;;6.38;1.55;;;;;;;;;;5123528;27;20062;-78
2023/03/31 07:39:10;;;;;;;5.15;1.35;;;;;;;;;;5121247;27;20052;-78
2023/03/31 07:41:37;;;;;;;5.65;1.20;;;;;;;;;;5120402;27;20096;-78
2023/03/31 07:44:03;;;;;;;6.30;1.30;;;;;;;;;;5118126;27;20105;-77
2023/03/31 07:46:30;;;;;;;11.27;1.80;;;;;;;;;;5111349;27;20105;-77
2023/03/31 07:48:57;;;;;;;7.68;1.00;;;;;;;;;;5123840;27;20166;-78
2023/03/31 07:51:25;;;;;;;7.25;1.25;;;;;;;;;;5105462;27;20055;-78
2023/03/31 07:53:51;;;;;;;7.63;1.40;;;;;;;;;;5124831;27;20039;-78
2023/03/31 07:56:20;;;;;;;7.10;1.70;;;;;;;;;;5114980;27;20077;-77
2023/03/31 07:58:46;;;;;;;4.93;1.30;;;;;;;;;;5099732;27;20052;-80
2023/03/31 08:01:16;;;;;;;6.65;1.50;;;;;;;;;;5120293;27;20059;-77
2023/03/31 08:03:43;;;;;;;8.20;1.43;;;;;;;;;;5109438;27;20095;-77
2023/03/31 08:06:10;;;;;;;7.68;1.65;;;;;;;;;;5113222;27;20054;-77
2023/03/31 08:08:41;;;;;;;6.32;1.55;;;;;;;;;;5115335;27;20056;-77
2023/03/31 08:11:08;;;;;;;;;;;;;;;;;;5091662;28;20060;-77
2023/03/31 08:13:35;;;;;;;7.93;1.60;;;;;;;;;;5112590;27;48012;-77
2023/03/31 08:16:02;;;;;;;9.68;2.05;;;;;;;;;;5117960;27;20052;-77
2023/03/31 08:18:29;;;;;;;9.05;1.70;;;;;;;;;;5113359;27;20506;-77
2023/03/31 08:20:55;;;;;;;7.57;1.90;;;;;;;;;;5120519;27;20052;-77
2023/03/31 08:23:21;;;;;;;9.48;1.90;;;;;;;;;;5117631;27;20052;-77
2023/03/31 08:25:48;;;;;;;8.02;1.88;;;;;;;;;;5115525;27;20050;-77
2023/03/31 08:28:14;;;;;;;10.23;1.98;;;;;;;;;;5119259;27;20048;-77
2023/03/31 08:30:41;;;;;;;11.18;2.13;;;;;;;;;;5106852;27;20063;-77
2023/03/31 08:33:07;;;;;;;8.13;1.90;;;;;;;;;;5102224;27;20063;-77
2023/03/31 08:35:34;;;;;;;11.77;2.25;;;;;;;;;;5085907;27;20052;-76
2023/03/31 08:38:00;;;;;;;10.65;2.58;;;;;;;;;;5109306;27;20075;-77
2023/03/31 08:40:28;;;;;;;9.50;2.40;;;;;;;;;;5103288;27;20063;-77
2023/03/31 08:42:56;;;;;;;15.50;2.80;;;;;;;;;;5112581;27;20057;-77
2023/03/31 08:45:25;;;;;;;16.33;3.05;;;;;;;;;;5092030;28;20967;-77
2023/03/31 08:47:56;;;;;;;11.95;2.42;;;;;;;;;;5096041;27;20117;-77
2023/03/31 08:50:25;;;;;;;12.60;2.95;;;;;;;;;;5120930;27;20081;-77
2023/03/31 08:53:24;;;;;;;13.20;3.00;;;;;;;;;;5111659;27;20059;-77
2023/03/31 08:55:52;;;;;;;11.63;2.95;;;;;;;;;;5041192;27;20135;-78
2023/03/31 08:58:21;;;;;;;13.85;3.22;;;;;;;;;;5114529;27;20139;-77
2023/03/31 09:00:53;;;;;;;12.90;2.60;;;;;;;;;;5115712;27;20050;-77
2023/03/31 09:03:30;;;;;;;15.23;3.13;;;;;;;;;;5123919;27;20059;-77
2023/03/31 09:06:00;;;;;;;15.95;3.00;;;;;;;;;;5121047;27;20537;-77
2023/03/31 09:08:32;;;;;;;14.18;2.85;;;;;;;;;;5117293;27;20063;-77
2023/03/31 09:11:13;;;;;;;12.20;3.05;;;;;;;;;;5114072;27;20091;-77
2023/03/31 09:13:53;;;;;;;18.65;3.85;;;;;;;;;;5125739;27;20059;-77
2023/03/31 09:16:23;;;;;;;12.60;2.50;;;;;;;;;;5124164;27;20063;-77
2023/03/31 09:18:50;;;;;;;20.48;3.50;;;;;;;;;;5119400;27;20279;-77
2023/03/31 09:21:16;;;;;;;15.45;3.15;;;;;;;;;;5114429;27;20039;-78
2023/03/31 09:23:58;;;;;;;15.73;3.30;;;;;;;;;;5096595;27;20438;-77
2023/03/31 09:26:25;;;;;;;16.67;3.25;;;;;;;;;;5102037;27;20048;-77
2023/03/31 09:28:52;;;;;;;15.57;3.00;;;;;;;;;;5124677;27;20056;-77
2023/03/31 09:31:19;;;;;;;13.93;2.67;;;;;;;;;;5123301;27;20051;-77
2023/03/31 09:33:46;;;;;;;15.45;2.83;;;;;;;;;;5119675;27;20051;-78
2023/03/31 09:36:14;;;;;;;14.30;2.92;;;;;;;;;;5117448;27;20102;-78
2023/03/31 09:38:41;;;;;;;15.93;3.35;;;;;;;;;;5106919;27;20527;-77
2023/03/31 09:41:08;;;;;;;17.50;2.85;;;;;;;;;;5128122;27;20044;-78
2023/03/31 09:43:34;;;;;;;16.55;3.35;;;;;;;;;;5114457;27;20056;-78
2023/03/31 09:46:02;;;;;;;15.57;3.40;;;;;;;;;;5103133;27;20063;-78
2023/03/31 09:48:43;;;;;;;17.88;3.67;;;;;;;;;;5123983;27;20125;-77
2023/03/31 09:51:16;;;;;;;16.33;2.63;;;;;;;;;;5116752;27;20110;-78
2023/03/31 09:53:59;;;;;;;14.57;2.60;;;;;;;;;;5122230;27;20103;-79
2023/03/31 09:56:33;;;;;;;14.73;2.63;;;;;;;;;;5110439;27;20063;-79
2023/03/31 09:59:01;;;;;;;17.73;4.28;;;;;;;;;;5106543;27;20055;-79
2023/03/31 10:01:28;;;;;;;15.85;3.10;;;;;;;;;;5105349;27;20083;-79
2023/03/31 10:03:55;;;;;;;15.15;3.38;;;;;;;;;;5107456;27;20058;-79
2023/03/31 10:06:22;;;;;;;13.20;2.35;;;;;;;;;;5106885;27;20556;-79
2023/03/31 10:09:02;;;;;;;19.20;4.25;;;;;;;;;;5119009;27;20040;-79
2023/03/31 10:11:28;;;;;;;18.13;3.28;;;;;;;;;;5106047;27;20059;-79
2023/03/31 10:14:00;;;;;;;12.38;2.55;;;;;;;;;;5119041;27;20052;-79
2023/03/31 10:16:41;;;;;;;8.35;1.98;;;;;;;;;;5092186;27;20060;-79
2023/03/31 10:19:11;;;;;;;14.10;2.50;;;;;;;;;;5107025;27;20047;-80
2023/03/31 10:21:37;;;;;;;15.77;2.42;;;;;;;;;;5108446;27;20164;-79
2023/03/31 10:24:08;;;;;;;10.05;1.95;;;;;;;;;;5119900;27;20047;-80
2023/03/31 10:26:34;;;;;;;13.70;2.10;;;;;;;;;;5122431;27;20517;-79
2023/03/31 10:29:01;;;;;;;9.57;2.00;;;;;;;;;;5123106;27;20123;-79
2023/03/31 10:31:35;;;;;;;12.27;2.10;;;;;;;;;;5117702;27;20443;-79
2023/03/31 10:34:06;;;;;;;13.45;2.42;;;;;;;;;;5089634;27;20079;-79
2023/03/31 10:36:33;;;;;;;8.75;2.33;;;;;;;;;;5118827;27;20048;-79
2023/03/31 10:39:03;;;;;;;11.55;2.10;;;;;;;;;;5090929;27;20518;-79
2023/03/31 10:41:30;;;;;;;9.45;2.08;;;;;;;;;;5119563;27;20051;-79
2023/03/31 10:43:57;;;;;;;10.25;2.10;;;;;;;;;;5118810;27;20047;-79
2023/03/31 10:46:41;;;;;;;13.63;2.30;;;;;;;;;;5119937;27;20056;-79
2023/03/31 10:49:22;;;;;;;12.20;1.75;;;;;;;;;;5119460;27;20055;-79
2023/03/31 10:51:53;;;;;;;11.63;2.03;;;;;;;;;;5122718;27;20141;-79
2023/03/31 10:54:20;;;;;;;10.45;1.60;;;;;;;;;;5111615;27;20113;-79
2023/03/31 10:56:50;;;;;;;11.60;2.03;;;;;;;;;;5102555;27;20139;-79
2023/03/31 10:59:19;;;;;;;11.48;2.15;;;;;;;;;;5111650;27;20536;-79
2023/03/31 11:01:54;;;;;;;11.25;1.75;;;;;;;;;;5104316;27;20075;-79
2023/03/31 11:04:27;;;;;;;9.40;1.98;;;;;;;;;;5118624;27;20056;-77
2023/03/31 11:07:04;;;;;;;9.38;2.00;;;;;;;;;;5115155;27;20058;-78
2023/03/31 11:09:39;;;;;;;11.25;2.00;;;;;;;;;;5114508;27;20488;-79
2023/03/31 11:12:18;;;;;;;9.90;1.95;;;;;;;;;;5086722;28;20139;-79
2023/03/31 11:14:48;;;;;;;12.57;2.15;;;;;;;;;;5107717;27;20059;-79
2023/03/31 11:17:20;;;;;;;12.05;1.90;;;;;;;;;;5123438;27;20571;-78
2023/03/31 11:19:56;;;;;;;12.00;2.10;;;;;;;;;;5114569;27;20070;-79
2023/03/31 11:22:42;;;;;;;10.00;2.17;;;;;;;;;;5112781;27;20047;-80
2023/03/31 11:25:09;;;;;;;14.15;2.25;;;;;;;;;;5111664;27;20052;-79
2023/03/31 11:27:35;;;;;;;11.60;1.67;;;;;;;;;;5103985;27;20509;-79
2023/03/31 11:30:02;;;;;;;12.85;2.00;;;;;;;;;;5106755;27;20048;-78
2023/03/31 11:32:35;;;;;;;11.65;1.52;;;;;;;;;;5110396;27;20052;-79
2023/03/31 11:35:03;;;;;;;13.80;1.90;;;;;;;;;;5109775;27;20056;-78
2023/03/31 11:37:55;;;;;;;12.75;2.15;;;;;;;;;;5103140;28;20159;-78
2023/03/31 11:40:24;;;;;;;11.18;1.80;;;;;;;;;;5081714;28;20058;-78
2023/03/31 11:43:14;;;;;;;16.88;2.20;;;;;;;;;;5117637;27;20047;-78
2023/03/31 11:45:46;;;;;;;11.45;2.00;;;;;;;;;;5092298;27;20055;-79
2023/03/31 11:48:21;;;;;;;12.30;1.85;;;;;;;;;;5092600;28;20052;-78
2023/03/31 11:50:47;;;;;;;11.75;2.15;;;;;;;;;;5120219;27;20181;-78
2023/03/31 11:53:16;;;;;;;17.25;1.98;;;;;;;;;;5117434;27;20091;-78
2023/03/31 11:55:44;;;;;;;14.48;2.15;;;;;;;;;;5116356;27;20101;-79
2023/03/31 11:58:15;;;;;;;13.50;2.10;;;;;;;;;;5120348;27;20039;-78
2023/03/31 12:00:54;;;;;;;10.15;2.28;;;;;;;;;;5122508;27;20078;-77
2023/03/31 12:03:32;;;;;;;13.43;2.00;;;;;;;;;;5104056;27;20974;-79
2023/03/31 12:06:18;;;;;;;17.67;2.40;;;;;;;;;;5101923;27;20083;-78
2023/03/31 12:08:45;;;;;;;16.77;2.25;;;;;;;;;;5121343;27;20051;-80
2023/03/31 12:11:15;;;;;;;13.27;2.60;;;;;;;;;;5121565;27;20147;-78
2023/03/31 12:13:47;;;;;;;11.50;2.55;;;;;;;;;;5114021;27;20062;-76
2023/03/31 12:16:34;;;;;;;9.77;1.80;;;;;;;;;;5121055;27;20056;-75
2023/03/31 12:19:16;;;;;;;10.55;2.08;;;;;;;;;;5089800;27;20181;-76
2023/03/31 12:21:46;;;;;;;7.53;1.92;;;;;;;;;;5102858;28;20135;-75
2023/03/31 12:24:13;;;;;;;17.77;2.63;;;;;;;;;;5110093;27;20047;-76
2023/03/31 12:26:44;;;;;;;10.77;2.15;;;;;;;;;;5123270;27;20052;-75
2023/03/31 12:29:22;;;;;;;11.80;2.17;;;;;;;;;;5089061;27;20059;-76
2023/03/31 12:31:50;;;;;;;7.40;1.50;;;;;;;;;;5120833;27;20052;-75
2023/03/31 12:34:18;;;;;;;12.07;2.22;;;;;;;;;;5110087;27;20048;-76
2023/03/31 12:36:51;;;;;;;11.27;1.60;;;;;;;;;;5115249;27;20139;-74
2023/03/31 12:39:41;;;;;;;10.73;2.03;;;;;;;;;;5112114;27;20142;-83
2023/03/31 12:42:23;;;;;;;16.98;2.50;;;;;;;;;;5082965;27;20062;-76
2023/03/31 12:44:56;;;;;;;17.33;2.45;;;;;;;;;;5113165;27;20059;-77
2023/03/31 12:47:26;;;;;;;13.63;2.45;;;;;;;;;;5106654;27;20062;-77
2023/03/31 12:50:02;;;;;;;16.08;2.42;;;;;;;;;;5112491;27;20636;-76
2023/03/31 12:52:31;;;;;;;16.48;2.47;;;;;;;;;;5105278;28;21021;-76
2023/03/31 12:54:58;;;;;;;13.93;3.00;;;;;;;;;;5112932;27;20135;-76
2023/03/31 12:57:25;;;;;;;12.93;1.85;;;;;;;;;;5116137;27;20136;-77
2023/03/31 13:00:11;;;;;;;13.70;2.65;;;;;;;;;;5119758;27;20083;-76
2023/03/31 13:02:38;;;;;;;14.00;2.10;;;;;;;;;;5109687;27;20130;-74
2023/03/31 13:05:23;;;;;;;13.93;1.65;;;;;;;;;;5123147;27;20054;-76
2023/03/31 13:07:49;;;;;;;13.98;2.35;;;;;;;;;;5117062;27;20554;-76
2023/03/31 13:10:26;;;;;;;8.77;1.95;;;;;;;;;;5106702;27;20060;-75
2023/03/31 13:13:12;;;;;;;10.52;2.13;;;;;;;;;;5122318;27;20555;-75
2023/03/31 13:15:48;;;;;;;11.30;2.35;;;;;;;;;;5120288;27;20051;-75
2023/03/31 13:18:18;;;;;;;13.30;2.58;;;;;;;;;;5118787;27;20054;-75
2023/03/31 13:20:57;;;;;;;14.07;1.83;;;;;;;;;;5121288;27;20051;-75
2023/03/31 13:23:25;;;;;;;11.63;2.40;;;;;;;;;;5103984;27;20589;-75
2023/03/31 13:25:56;;;;;;;9.63;1.95;;;;;;;;;;5110786;27;20059;-75
2023/03/31 13:28:41;;;;;;;11.25;2.10;;;;;;;;;;5118213;27;20059;-75
2023/03/31 13:31:09;;;;;;;13.13;2.30;;;;;;;;;;5107011;27;20138;-75
2023/03/31 13:33:39;;;;;;;12.15;2.03;;;;;;;;;;5124456;27;20048;-75
2023/03/31 13:36:25;;;;;;;12.98;2.13;;;;;;;;;;5105563;27;20100;-75
2023/03/31 13:39:11;;;;;;;13.80;2.10;;;;;;;;;;5123018;27;20098;-75
2023/03/31 13:41:41;;;;;;;10.40;1.90;;;;;;;;;;5118037;27;20525;-75
2023/03/31 13:44:11;;;;;;;12.27;1.92;;;;;;;;;;5120432;27;20496;-75
2023/03/31 13:46:56;;;;;;;14.23;1.95;;;;;;;;;;5097291;27;20113;-76
2023/03/31 13:49:36;;;;;;;20.25;9.20;;;;;;;;;;5114675;27;20051;-75
2023/03/31 13:52:04;;;;;;;24.08;12.48;;;;;;;;;;5115980;27;20059;-76
2023/03/31 13:54:30;;;;;;;13.35;4.15;;;;;;;;;;5106582;27;20106;-76
2023/03/31 13:57:15;;;;;;;39.67;17.60;;;;;;;;;;5102781;27;20826;-76
2023/03/31 14:00:00;;;;;;;27.55;12.27;;;;;;;;;;5121490;27;20493;-76
2023/03/31 14:02:39;;;;;;;26.63;13.43;;;;;;;;;;5096153;28;20052;-76
2023/03/31 14:05:19;;;;;;;10.77;3.63;;;;;;;;;;5104156;27;20055;-76
2023/03/31 14:07:48;;;;;;;12.43;3.70;;;;;;;;;;5122241;27;20078;-76
2023/03/31 14:10:26;;;;;;;18.73;10.32;;;;;;;;;;5105986;27;20292;-76
2023/03/31 14:13:03;;;;;;;14.90;4.00;;;;;;;;;;5101538;27;21063;-76
2023/03/31 14:15:30;;;;;;;8.02;2.85;;;;;;;;;;5120333;27;20064;-76
2023/03/31 14:17:56;;;;;;;20.48;7.43;;;;;;;;;;5117926;27;20162;-76
2023/03/31 14:20:49;;;;;;;13.52;7.93;;;;;;;;;;5122132;27;20067;-76
2023/03/31 14:23:16;;;;;;;13.07;5.22;;;;;;;;;;5099076;27;20044;-76
2023/03/31 14:26:02;;;;;;;11.75;6.20;;;;;;;;;;5115837;27;20059;-76
2023/03/31 14:28:34;;;;;;;13.32;6.68;;;;;;;;;;5111201;27;20063;-76
2023/03/31 14:31:01;;;;;;;19.40;9.80;;;;;;;;;;5105310;27;20048;-75
2023/03/31 14:33:37;;;;;;;19.77;10.50;;;;;;;;;;5087308;27;20063;-76
2023/03/31 14:36:03;;;;;;;12.77;5.10;;;;;;;;;;5117883;27;20052;-76
2023/03/31 14:38:30;;;;;;;32.88;17.20;;;;;;;;;;5111320;27;20074;-75
2023/03/31 14:40:59;;;;;;;19.88;9.82;;;;;;;;;;5112535;27;20087;-76
2023/03/31 14:43:27;;;;;;;15.30;7.15;;;;;;;;;;5086673;28;20087;-75
2023/03/31 14:45:57;;;;;;;11.18;5.75;;;;;;;;;;5104600;27;20087;-76
2023/03/31 14:48:26;;;;;;;22.63;9.65;;;;;;;;;;5114446;27;20054;-75
2023/03/31 14:50:56;;;;;;;12.10;3.72;;;;;;;;;;5124035;27;20059;-76
2023/03/31 14:53:24;;;;;;;13.55;5.63;;;;;;;;;;5121114;27;21024;-75